createdAt,value
2023-05-16T00:00:39.123Z,6.27
2023-05-16T00:03:06.491Z,5.53
2023-05-16T00:05:33.628Z,5.87
2023-05-16T00:08:00.436Z,6.20
2023-05-16T00:10:27.590Z,6.60
2023-05-16T00:12:54.650Z,5.83
2023-05-16T00:15:21.556Z,6.33
2023-05-16T00:17:49.902Z,5.77
2023-05-16T00:20:18.928Z,5.90
2023-05-16T00:22:46.204Z,5.90
2023-05-16T00:25:13.075Z,6.40
2023-05-16T00:27:39.895Z,6.50
2023-05-16T00:30:07.734Z,8.67
2023-05-16T00:32:34.661Z,6.37
2023-05-16T00:35:01.598Z,6.20
2023-05-16T00:37:28.415Z,6.77
2023-05-16T00:39:55.813Z,6.50
2023-05-16T00:42:22.628Z,6.23
2023-05-16T00:44:49.447Z,5.97
2023-05-16T00:47:16.304Z,7.13
2023-05-16T00:49:43.612Z,6.00
2023-05-16T00:52:10.545Z,6.57
2023-05-16T00:54:38.291Z,6.00
2023-05-16T00:57:06.767Z,6.73
2023-05-16T00:59:34.094Z,6.03
2023-05-16T01:02:01.134Z,6.30
2023-05-16T01:04:28.665Z,6.27
2023-05-16T01:06:57.174Z,6.70
2023-05-16T01:09:24.097Z,7.03
2023-05-16T01:12:16.360Z,6.80
2023-05-16T01:14:59.773Z,7.20
2023-05-16T01:17:43.692Z,7.37
2023-05-16T01:20:48.237Z,6.43
2023-05-16T01:24:04.060Z,6.77
2023-05-16T01:26:32.564Z,6.97
2023-05-16T01:28:59.925Z,7.43
2023-05-16T01:31:26.936Z,7.30
2023-05-16T01:33:53.816Z,9.17
2023-05-16T01:36:25.954Z,8.93
2023-05-16T01:39:21.918Z,8.60
2023-05-16T01:42:03.846Z,8.07
2023-05-16T01:44:45.787Z,8.40
2023-05-16T01:47:15.118Z,9.63
2023-05-16T01:50:05.630Z,7.77
2023-05-16T01:52:40.897Z,8.60
2023-05-16T01:55:16.088Z,9.50
2023-05-16T01:57:45.232Z,8.70
2023-05-16T02:00:13.171Z,7.83
2023-05-16T02:02:40.065Z,8.57
2023-05-16T02:05:07.510Z,8.80
2023-05-16T02:07:34.829Z,8.27
2023-05-16T02:10:01.708Z,9.03
2023-05-16T02:12:28.512Z,8.23
2023-05-16T02:14:55.460Z,9.47
2023-05-16T02:17:22.657Z,7.87
2023-05-16T02:19:49.573Z,8.73
2023-05-16T02:22:16.410Z,8.37
2023-05-16T02:24:43.333Z,9.90
2023-05-16T02:27:10.234Z,8.47
2023-05-16T02:29:37.013Z,8.40
2023-05-16T02:32:04.710Z,8.30
2023-05-16T02:34:31.541Z,8.07
2023-05-16T02:36:58.376Z,8.93
2023-05-16T02:39:25.452Z,8.83
2023-05-16T02:41:52.269Z,8.87
2023-05-16T02:44:19.100Z,8.53
2023-05-16T02:46:46.513Z,8.57
2023-05-16T02:49:13.574Z,9.80
2023-05-16T02:51:40.450Z,10.47
2023-05-16T02:54:09.842Z,10.47
2023-05-16T02:56:37.263Z,9.60
2023-05-16T02:59:05.098Z,10.03
2023-05-16T03:01:31.996Z,10.37
2023-05-16T03:03:59.029Z,9.47
2023-05-16T03:06:26.115Z,11.00
2023-05-16T03:08:52.986Z,10.37
2023-05-16T03:11:22.290Z,10.37
2023-05-16T03:13:49.356Z,11.33
2023-05-16T03:16:16.559Z,10.67
2023-05-16T03:18:43.862Z,12.37
2023-05-16T03:21:10.874Z,11.33
2023-05-16T03:23:37.717Z,10.30
2023-05-16T03:26:04.521Z,9.80
2023-05-16T03:28:31.398Z,10.20
2023-05-16T03:30:58.732Z,10.93
2023-05-16T03:33:25.558Z,10.77
2023-05-16T03:35:52.711Z,10.73
2023-05-16T03:38:19.537Z,11.40
2023-05-16T03:40:46.467Z,10.63
2023-05-16T03:43:13.291Z,11.13
2023-05-16T03:45:40.434Z,11.97
2023-05-16T03:48:09.001Z,12.17
2023-05-16T03:50:39.540Z,11.73
2023-05-16T03:53:07.886Z,12.07
2023-05-16T03:55:35.075Z,11.30
2023-05-16T03:58:02.062Z,11.97
2023-05-16T04:00:29.237Z,11.80
2023-05-16T04:02:56.266Z,13.53
2023-05-16T04:05:23.289Z,11.93
2023-05-16T04:07:50.133Z,11.50
2023-05-16T04:10:16.981Z,13.83
2023-05-16T04:12:44.524Z,12.40
2023-05-16T04:15:11.822Z,12.13
2023-05-16T04:17:38.691Z,12.20
2023-05-16T04:20:07.027Z,11.47
2023-05-16T04:22:33.939Z,11.67
2023-05-16T04:25:00.882Z,11.63
2023-05-16T04:27:27.740Z,12.73
2023-05-16T04:29:54.577Z,11.13
2023-05-16T04:32:21.528Z,15.33
2023-05-16T04:34:50.070Z,12.00
2023-05-16T04:37:17.225Z,12.60
2023-05-16T04:39:44.024Z,12.97
2023-05-16T04:42:10.940Z,13.37
2023-05-16T04:44:37.774Z,15.80
2023-05-16T04:47:04.957Z,11.83
2023-05-16T04:49:31.782Z,12.77
2023-05-16T04:51:59.153Z,15.13
2023-05-16T04:54:26.525Z,13.77
2023-05-16T04:56:53.637Z,12.47
2023-05-16T04:59:21.173Z,12.57
2023-05-16T05:01:48.039Z,11.63
2023-05-16T05:04:14.926Z,12.23
2023-05-16T05:06:41.782Z,13.23
2023-05-16T05:09:08.609Z,13.80
2023-05-16T05:11:35.625Z,13.67
2023-05-16T05:14:02.553Z,13.63
2023-05-16T05:16:29.422Z,14.93
2023-05-16T05:18:56.348Z,14.40
2023-05-16T05:21:25.346Z,13.07
2023-05-16T05:23:52.153Z,13.03
2023-05-16T05:26:19.160Z,13.40
2023-05-16T05:28:53.922Z,13.87
2023-05-16T05:31:28.549Z,13.70
2023-05-16T05:33:56.907Z,14.30
2023-05-16T05:36:23.837Z,13.23
2023-05-16T05:38:50.804Z,16.10
2023-05-16T05:41:17.653Z,14.43
2023-05-16T05:43:44.508Z,13.77
2023-05-16T05:46:11.597Z,13.50
2023-05-16T05:48:38.555Z,12.60
2023-05-16T05:51:05.514Z,12.70
2023-05-16T05:53:32.327Z,14.63
2023-05-16T05:55:59.185Z,12.63
2023-05-16T05:58:26.116Z,12.90
2023-05-16T06:00:52.907Z,12.67
2023-05-16T06:03:21.263Z,11.97
2023-05-16T06:05:48.403Z,12.23
2023-05-16T06:08:15.370Z,12.10
2023-05-16T06:10:42.221Z,11.93
2023-05-16T06:13:09.288Z,12.57
2023-05-16T06:15:36.145Z,12.27
2023-05-16T06:18:03.035Z,12.77
2023-05-16T06:20:29.970Z,13.67
2023-05-16T06:22:56.775Z,11.80
2023-05-16T06:25:23.641Z,12.20
2023-05-16T06:27:50.795Z,12.67
2023-05-16T06:30:17.666Z,12.53
2023-05-16T06:32:44.644Z,12.07
2023-05-16T06:35:11.629Z,11.20
2023-05-16T06:37:39.205Z,11.87
2023-05-16T06:40:08.022Z,12.97
2023-05-16T06:42:34.904Z,13.03
2023-05-16T06:45:01.826Z,13.43
2023-05-16T06:47:28.731Z,13.50
2023-05-16T06:49:55.760Z,13.90
2023-05-16T06:52:22.779Z,13.23
2023-05-16T06:54:49.698Z,13.40
2023-05-16T06:57:16.663Z,13.33
2023-05-16T06:59:43.615Z,13.27
2023-05-16T07:02:10.625Z,13.47
2023-05-16T07:04:38.128Z,13.47
2023-05-16T07:07:07.730Z,12.93
2023-05-16T07:09:35.120Z,13.47
2023-05-16T07:12:02.098Z,13.67
2023-05-16T07:14:29.011Z,12.40
2023-05-16T07:16:56.106Z,12.47
2023-05-16T07:19:23.240Z,12.40
2023-05-16T07:21:50.099Z,12.13
2023-05-16T07:24:16.952Z,12.93
2023-05-16T07:26:44.019Z,13.07
2023-05-16T07:29:11.090Z,12.03
2023-05-16T07:31:38.087Z,13.00
2023-05-16T07:34:05.076Z,13.00
2023-05-16T07:36:32.080Z,11.93
2023-05-16T07:38:58.962Z,12.00
2023-05-16T07:41:26.316Z,12.80
2023-05-16T07:43:53.456Z,12.27
2023-05-16T07:46:20.437Z,12.63
2023-05-16T07:48:47.624Z,12.40
2023-05-16T07:51:14.488Z,12.73
2023-05-16T07:53:42.018Z,12.70
2023-05-16T07:56:09.348Z,12.13
2023-05-16T07:58:36.312Z,12.47
2023-05-16T08:01:03.721Z,11.23
2023-05-16T08:03:31.000Z,13.27
2023-05-16T08:05:58.140Z,11.73
2023-05-16T08:08:25.124Z,11.73
2023-05-16T08:10:51.954Z,11.60
2023-05-16T08:13:18.857Z,10.73
2023-05-16T08:15:46.800Z,10.20
2023-05-16T08:18:16.158Z,10.00
2023-05-16T08:20:43.574Z,10.17
2023-05-16T08:23:10.530Z,9.23
2023-05-16T08:25:37.594Z,9.93
2023-05-16T08:28:04.621Z,10.40
2023-05-16T08:30:31.538Z,10.17
2023-05-16T08:32:58.512Z,9.47
2023-05-16T08:35:25.879Z,10.57
2023-05-16T08:37:52.991Z,11.00
2023-05-16T08:40:20.450Z,11.00
2023-05-16T08:42:47.317Z,10.80
2023-05-16T08:45:14.611Z,10.03
2023-05-16T08:47:44.492Z,10.67
2023-05-16T08:50:18.656Z,11.13
2023-05-16T08:52:47.717Z,11.03
2023-05-16T08:55:16.970Z,11.10
2023-05-16T08:57:45.596Z,10.50
2023-05-16T09:00:13.296Z,11.10
2023-05-16T09:02:44.904Z,12.07
2023-05-16T09:05:17.620Z,11.47
2023-05-16T09:07:45.736Z,11.17
2023-05-16T09:10:13.694Z,11.30
2023-05-16T09:12:42.137Z,11.90
2023-05-16T09:15:10.961Z,10.97
2023-05-16T09:17:45.197Z,11.60
2023-05-16T09:20:18.205Z,12.10
2023-05-16T09:22:59.435Z,11.00
2023-05-16T09:25:31.833Z,12.23
2023-05-16T09:28:02.071Z,12.23
2023-05-16T09:30:34.866Z,16.03
2023-05-16T09:33:02.521Z,13.77
2023-05-16T09:37:59.590Z,14.07
2023-05-16T09:40:26.480Z,14.83
2023-05-16T09:43:05.878Z,14.90
2023-05-16T09:45:34.263Z,14.10
2023-05-16T09:48:07.248Z,14.57
2023-05-16T09:50:36.724Z,14.27
2023-05-16T09:53:04.881Z,14.47
2023-05-16T09:55:32.661Z,13.83
2023-05-16T09:57:59.602Z,13.77
2023-05-16T10:00:32.100Z,14.93
2023-05-16T10:03:04.071Z,14.30
2023-05-16T10:05:32.793Z,13.67
2023-05-16T10:08:02.753Z,14.27
2023-05-16T10:10:30.426Z,14.20
2023-05-16T10:13:01.419Z,15.33
2023-05-16T10:15:29.525Z,14.33
2023-05-16T10:18:02.026Z,14.70
2023-05-16T10:20:29.329Z,13.50
2023-05-16T10:22:56.951Z,14.87
2023-05-16T10:25:32.889Z,14.40
2023-05-16T10:28:00.230Z,14.77
2023-05-16T10:30:27.449Z,15.53
2023-05-16T10:32:56.697Z,15.53
2023-05-16T10:35:23.840Z,14.93
2023-05-16T10:37:52.120Z,14.70
2023-05-16T10:40:19.847Z,13.87
2023-05-16T10:43:02.900Z,13.90
2023-05-16T10:45:30.324Z,13.57
2023-05-16T10:48:00.915Z,13.43
2023-05-16T10:50:43.527Z,13.80
2023-05-16T10:53:28.501Z,13.93
2023-05-16T10:56:01.497Z,14.57
2023-05-16T10:58:31.437Z,15.03
2023-05-16T11:01:27.634Z,14.67
2023-05-16T11:04:00.913Z,13.70
2023-05-16T11:06:29.785Z,15.63
2023-05-16T11:09:14.133Z,14.60
2023-05-16T11:11:49.365Z,14.57
2023-05-16T11:14:24.730Z,14.63
2023-05-16T11:17:14.318Z,14.30
2023-05-16T11:19:59.847Z,13.33
2023-05-16T11:22:29.930Z,15.77
2023-05-16T11:25:09.138Z,15.63
2023-05-16T11:27:43.846Z,15.10
2023-05-16T11:30:10.720Z,15.27
2023-05-16T11:32:40.576Z,14.30
2023-05-16T11:35:12.782Z,14.30
2023-05-16T11:37:42.121Z,11.73
2023-05-16T11:40:12.192Z,12.23
2023-05-16T11:42:43.174Z,12.77
2023-05-16T11:45:22.932Z,12.47
2023-05-16T11:47:50.292Z,12.23
2023-05-16T11:50:26.278Z,12.63
2023-05-16T11:52:56.189Z,12.20
2023-05-16T11:58:02.080Z,12.00
2023-05-16T12:00:29.411Z,11.97
2023-05-16T12:03:05.006Z,11.77
2023-05-16T12:05:33.978Z,11.13
2023-05-16T12:08:05.778Z,11.83
2023-05-16T12:10:36.139Z,12.17
2023-05-16T12:13:03.654Z,11.53
2023-05-16T12:15:31.081Z,12.20
2023-05-16T12:17:58.670Z,13.10
2023-05-16T12:20:27.591Z,12.50
2023-05-16T12:22:58.642Z,12.80
2023-05-16T12:25:30.235Z,12.17
2023-05-16T12:28:01.136Z,11.43
2023-05-16T12:30:31.227Z,10.47
2023-05-16T12:33:07.967Z,13.63
2023-05-16T12:35:38.790Z,15.97
2023-05-16T12:38:10.546Z,14.47
2023-05-16T12:40:42.217Z,17.50
2023-05-16T12:43:22.781Z,15.90
2023-05-16T12:45:55.933Z,17.07
2023-05-16T12:48:32.331Z,16.50
2023-05-16T12:51:17.047Z,14.20
2023-05-16T12:53:57.614Z,14.43
2023-05-16T12:56:28.750Z,16.60
2023-05-16T12:58:57.459Z,12.10
2023-05-16T13:01:24.512Z,9.70
2023-05-16T13:03:51.521Z,11.67
2023-05-16T13:06:18.564Z,11.73
2023-05-16T13:08:46.156Z,11.43
2023-05-16T13:11:13.010Z,10.20
2023-05-16T13:13:39.963Z,10.50
2023-05-16T13:16:07.183Z,10.77
2023-05-16T13:18:34.608Z,10.13
2023-05-16T13:21:04.462Z,10.63
2023-05-16T13:23:31.559Z,10.17
2023-05-16T13:25:59.348Z,9.27
2023-05-16T13:28:26.270Z,9.67
2023-05-16T13:30:53.211Z,8.70
2023-05-16T13:33:20.192Z,9.73
2023-05-16T13:35:47.519Z,8.90
2023-05-16T13:38:15.640Z,8.67
2023-05-16T13:40:42.863Z,8.77
2023-05-16T13:43:09.757Z,8.30
2023-05-16T13:45:37.496Z,8.30
2023-05-16T13:48:04.887Z,8.80
2023-05-16T13:50:34.148Z,8.97
2023-05-16T13:53:01.128Z,9.57
2023-05-16T13:55:28.473Z,9.37
2023-05-16T13:57:55.736Z,9.27
2023-05-16T14:02:52.947Z,10.53
2023-05-16T14:05:19.870Z,10.30
2023-05-16T14:07:47.265Z,9.47
2023-05-16T14:10:14.196Z,8.90
2023-05-16T14:12:41.241Z,11.80
2023-05-16T14:15:08.835Z,9.23
2023-05-16T14:17:35.752Z,8.60
2023-05-16T14:20:02.914Z,8.77
2023-05-16T14:22:29.824Z,9.13
2023-05-16T14:24:56.741Z,9.83
2023-05-16T14:27:23.606Z,9.07
2023-05-16T14:29:50.538Z,8.80
2023-05-16T14:32:17.452Z,9.57
2023-05-16T14:34:44.537Z,9.40
2023-05-16T14:37:11.536Z,10.10
2023-05-16T14:39:38.664Z,9.67
2023-05-16T14:42:08.425Z,9.07
2023-05-16T14:44:36.108Z,8.70
2023-05-16T14:47:04.198Z,10.87
2023-05-16T14:49:31.151Z,9.03
2023-05-16T14:51:58.429Z,9.47
2023-05-16T14:54:25.464Z,9.03
2023-05-16T14:56:52.406Z,10.03
2023-05-16T14:59:19.353Z,9.63
2023-05-16T15:01:46.285Z,9.03
2023-05-16T15:04:13.328Z,9.93
2023-05-16T15:06:40.646Z,10.00
2023-05-16T15:09:07.690Z,10.03
2023-05-16T15:11:34.650Z,10.53
2023-05-16T15:14:01.725Z,11.40
2023-05-16T15:16:31.243Z,10.33
2023-05-16T15:18:58.567Z,9.80
2023-05-16T15:21:25.777Z,10.90
2023-05-16T15:23:52.991Z,10.90
2023-05-16T15:26:19.957Z,11.33
2023-05-16T15:28:46.823Z,11.40
2023-05-16T15:31:14.029Z,10.70
2023-05-16T15:33:41.273Z,12.20
2023-05-16T15:36:08.685Z,11.63
2023-05-16T15:38:36.376Z,10.87
2023-05-16T15:41:18.758Z,12.03
2023-05-16T15:43:53.536Z,11.70
2023-05-16T15:46:20.841Z,12.03
2023-05-16T15:48:48.867Z,11.73
2023-05-16T15:51:16.153Z,12.53
2023-05-16T15:53:43.071Z,12.53
2023-05-16T15:56:10.278Z,13.03
2023-05-16T15:58:37.190Z,11.77
2023-05-16T16:01:04.175Z,13.03
2023-05-16T16:03:31.345Z,12.30
2023-05-16T16:05:58.400Z,12.60
2023-05-16T16:08:27.550Z,13.33
2023-05-16T16:10:54.551Z,12.93
2023-05-16T16:13:21.650Z,13.60
2023-05-16T16:15:48.628Z,13.77
2023-05-16T16:18:16.461Z,13.63
2023-05-16T16:20:43.423Z,13.13
2023-05-16T16:23:10.569Z,14.17
2023-05-16T16:25:37.496Z,14.63
2023-05-16T16:28:04.683Z,14.23
2023-05-16T16:30:31.689Z,13.63
2023-05-16T16:32:58.632Z,13.47
2023-05-16T16:35:26.712Z,14.60
2023-05-16T16:38:05.670Z,14.90
2023-05-16T16:40:33.539Z,14.13
2023-05-16T16:43:01.382Z,14.63
2023-05-16T16:45:28.862Z,14.60
2023-05-16T16:47:56.692Z,14.77
2023-05-16T16:50:24.006Z,14.77
2023-05-16T16:52:51.199Z,15.60
2023-05-16T16:55:18.097Z,14.27
2023-05-16T16:57:45.075Z,15.23
2023-05-16T17:00:13.138Z,14.37
2023-05-16T17:02:40.073Z,13.23
2023-05-16T17:05:08.664Z,15.47
2023-05-16T17:07:35.635Z,10.70
2023-05-16T17:10:07.791Z,10.40
2023-05-16T17:12:35.258Z,10.97
2023-05-16T17:15:02.294Z,9.17
2023-05-16T17:17:29.435Z,8.77
2023-05-16T17:19:56.486Z,11.17
2023-05-16T17:22:23.375Z,9.33
2023-05-16T17:24:50.296Z,9.43
2023-05-16T17:27:18.200Z,10.10
2023-05-16T17:29:45.052Z,10.73
2023-05-16T17:32:11.926Z,10.37
2023-05-16T17:34:38.816Z,9.47
2023-05-16T17:37:06.681Z,9.83
2023-05-16T17:39:34.166Z,9.77
2023-05-16T17:42:01.733Z,9.70
2023-05-16T17:44:28.804Z,9.80
2023-05-16T17:46:55.824Z,9.83
2023-05-16T17:49:22.734Z,10.07
2023-05-16T17:51:52.795Z,10.37
2023-05-16T17:54:21.217Z,10.80
2023-05-16T17:56:50.292Z,10.47
2023-05-16T17:59:17.409Z,11.20
2023-05-16T18:01:44.762Z,11.97
2023-05-16T18:04:11.745Z,12.37
2023-05-16T18:06:39.242Z,12.33
2023-05-16T18:09:09.568Z,13.53
2023-05-16T18:11:39.525Z,13.50
2023-05-16T18:14:12.717Z,13.20
2023-05-16T18:16:39.783Z,13.83
2023-05-16T18:19:08.605Z,13.83
2023-05-16T18:21:37.062Z,23.17
2023-05-16T18:24:05.245Z,14.00
2023-05-16T18:26:32.175Z,11.77
2023-05-16T18:28:59.353Z,12.43
2023-05-16T18:31:28.649Z,12.13
2023-05-16T18:33:55.624Z,9.77
2023-05-16T18:36:22.759Z,10.40
2023-05-16T18:38:49.822Z,9.77
2023-05-16T18:41:17.381Z,9.70
2023-05-16T18:43:44.277Z,9.60
2023-05-16T18:46:11.194Z,9.17
2023-05-16T18:48:38.221Z,10.80
2023-05-16T18:51:08.249Z,10.07
2023-05-16T18:53:37.129Z,9.93
2023-05-16T18:56:07.373Z,8.90
2023-05-16T18:58:34.507Z,9.10
2023-05-16T19:01:01.700Z,9.57
2023-05-16T19:03:28.778Z,8.90
2023-05-16T19:05:55.882Z,8.93
2023-05-16T19:08:31.269Z,10.43
2023-05-16T19:11:03.789Z,9.20
2023-05-16T19:13:34.518Z,10.23
2023-05-16T19:16:01.580Z,9.33
2023-05-16T19:18:28.716Z,9.40
2023-05-16T19:20:56.024Z,9.03
2023-05-16T19:23:22.909Z,9.80
2023-05-16T19:25:52.583Z,9.13
2023-05-16T19:28:19.468Z,9.97
2023-05-16T19:30:46.335Z,8.60
2023-05-16T19:33:13.461Z,8.50
2023-05-16T19:35:40.404Z,7.60
2023-05-16T19:38:07.245Z,8.97
2023-05-16T19:40:40.191Z,7.37
2023-05-16T19:43:07.218Z,8.07
2023-05-16T19:45:37.525Z,8.10
2023-05-16T19:48:04.975Z,8.00
2023-05-16T19:50:31.859Z,7.70
2023-05-16T19:52:58.765Z,7.20
2023-05-16T19:55:27.235Z,7.67
2023-05-16T19:57:54.825Z,6.67
2023-05-16T20:00:21.674Z,6.80
2023-05-16T20:02:48.828Z,6.83
2023-05-16T20:05:19.795Z,7.00
2023-05-16T20:07:46.859Z,6.20
2023-05-16T20:10:14.083Z,6.10
2023-05-16T20:12:40.973Z,7.87
2023-05-16T20:15:10.864Z,6.27
2023-05-16T20:17:38.524Z,5.83
2023-05-16T20:20:08.196Z,8.83
2023-05-16T20:22:41.694Z,6.90
2023-05-16T20:25:10.194Z,5.63
2023-05-16T20:27:37.703Z,5.97
2023-05-16T20:30:06.782Z,6.73
2023-05-16T20:32:34.359Z,5.87
2023-05-16T20:35:04.614Z,4.63
2023-05-16T20:37:31.504Z,4.30
2023-05-16T20:39:58.340Z,4.60
2023-05-16T20:42:25.275Z,4.50
2023-05-16T20:44:52.106Z,6.77
2023-05-16T20:47:19.000Z,4.37
2023-05-16T20:49:45.885Z,4.73
2023-05-16T20:52:12.723Z,4.30
2023-05-16T20:54:41.086Z,4.33
2023-05-16T20:57:07.920Z,5.03
2023-05-16T20:59:34.786Z,3.97
2023-05-16T21:02:01.661Z,4.87
2023-05-16T21:04:28.641Z,4.33
2023-05-16T21:06:55.525Z,5.00
2023-05-16T21:09:22.401Z,7.10
2023-05-16T21:11:49.967Z,4.80
2023-05-16T21:14:16.917Z,4.57
2023-05-16T21:16:43.818Z,4.47
2023-05-16T21:19:10.717Z,4.90
2023-05-16T21:21:37.551Z,5.93
2023-05-16T21:24:05.417Z,3.90
2023-05-16T21:26:32.248Z,4.23
2023-05-16T21:28:59.140Z,7.33
2023-05-16T21:31:26.231Z,8.90
2023-05-16T21:33:53.226Z,7.97
2023-05-16T21:36:20.932Z,4.27
2023-05-16T21:38:48.427Z,3.40
2023-05-16T21:41:15.704Z,6.27
2023-05-16T21:43:42.539Z,6.10
2023-05-16T21:46:10.585Z,5.43
2023-05-16T21:48:37.528Z,7.43
2023-05-16T21:51:04.530Z,5.40
2023-05-16T21:53:31.502Z,4.13
2023-05-16T21:55:59.575Z,4.13
2023-05-16T21:58:26.637Z,3.70
2023-05-16T22:00:53.844Z,7.77
2023-05-16T22:03:21.416Z,5.57
2023-05-16T22:05:48.483Z,5.90
2023-05-16T22:08:15.521Z,4.00
2023-05-16T22:10:42.714Z,7.20
2023-05-16T22:13:09.880Z,4.63
2023-05-16T22:15:36.822Z,4.70
2023-05-16T22:18:03.800Z,5.30
2023-05-16T22:20:30.769Z,5.10
2023-05-16T22:22:57.691Z,5.70
2023-05-16T22:25:24.651Z,5.03
2023-05-16T22:27:51.509Z,5.83
2023-05-16T22:30:18.504Z,6.90
2023-05-16T22:32:46.702Z,9.97
2023-05-16T22:35:14.291Z,4.10
2023-05-16T22:37:41.307Z,6.30
2023-05-16T22:40:09.155Z,4.87
2023-05-16T22:42:36.061Z,4.23
2023-05-16T22:45:03.836Z,3.83
2023-05-16T22:47:31.012Z,6.10
2023-05-16T22:49:57.951Z,4.37
2023-05-16T22:52:24.958Z,5.63
2023-05-16T22:54:51.790Z,4.93
2023-05-16T22:57:18.748Z,5.27
2023-05-16T22:59:45.594Z,4.07
2023-05-16T23:03:15.471Z,5.43
2023-05-16T23:05:42.566Z,4.77
2023-05-16T23:08:09.418Z,4.50
2023-05-16T23:10:36.876Z,7.03
2023-05-16T23:13:03.824Z,6.07
2023-05-16T23:15:30.962Z,4.93
2023-05-16T23:17:58.051Z,7.17
2023-05-16T23:20:25.114Z,6.90
2023-05-16T23:22:52.028Z,7.40
2023-05-16T23:25:18.924Z,3.60
2023-05-16T23:27:45.851Z,5.03
2023-05-16T23:30:13.103Z,7.13
2023-05-16T23:32:40.024Z,6.13
2023-05-16T23:35:07.554Z,6.97
2023-05-16T23:37:34.410Z,3.87
2023-05-16T23:40:01.288Z,6.40
2023-05-16T23:42:28.139Z,7.07
2023-05-16T23:44:55.045Z,5.77
2023-05-16T23:47:22.501Z,5.93
2023-05-16T23:49:49.449Z,6.17
2023-05-16T23:52:16.311Z,6.03
2023-05-16T23:54:45.318Z,6.83
2023-05-16T23:57:12.178Z,5.23
2023-05-16T23:59:39.789Z,5.97
